createdAt,value
2023-03-22T00:01:31.866Z,100735.88
2023-03-22T00:04:07.043Z,100732.88
2023-03-22T00:06:38.283Z,100727.88
2023-03-22T00:09:07.498Z,100731.03
2023-03-22T00:11:35.853Z,100726.50
2023-03-22T00:14:04.434Z,100728.81
2023-03-22T00:16:35.564Z,100724.25
2023-03-22T00:19:08.583Z,100720.88
2023-03-22T00:21:36.480Z,100725.06
2023-03-22T00:24:04.740Z,100729.78
2023-03-22T00:26:32.672Z,100719.84
2023-03-22T00:29:01.570Z,100717.00
2023-03-22T00:31:29.558Z,100707.88
2023-03-22T00:33:59.338Z,100716.13
2023-03-22T00:36:31.266Z,100708.56
2023-03-22T00:39:01.413Z,100699.81
2023-03-22T00:41:32.030Z,100703.38
2023-03-22T00:44:00.401Z,100698.44
2023-03-22T00:46:28.615Z,100698.59
2023-03-22T00:48:57.393Z,100696.09
2023-03-22T00:51:31.364Z,100706.16
2023-03-22T00:54:01.519Z,100704.81
2023-03-22T00:56:30.675Z,100709.38
2023-03-22T00:58:59.945Z,100703.28
2023-03-22T01:01:29.216Z,100706.50
2023-03-22T01:04:06.057Z,100699.91
2023-03-22T01:06:38.598Z,100702.47
2023-03-22T01:09:09.954Z,100687.66
2023-03-22T01:11:37.917Z,100688.34
2023-03-22T01:14:10.486Z,100690.34
2023-03-22T01:16:42.762Z,100682.28
2023-03-22T01:19:13.744Z,100677.75
2023-03-22T01:21:45.485Z,100678.22
2023-03-22T01:24:16.225Z,100680.63
2023-03-22T01:26:46.922Z,100674.91
2023-03-22T01:29:15.108Z,100676.56
2023-03-22T01:31:43.660Z,100681.25
2023-03-22T01:34:11.715Z,100670.97
2023-03-22T01:36:41.805Z,100666.78
2023-03-22T01:39:14.419Z,100661.06
2023-03-22T01:41:45.128Z,100656.38
2023-03-22T01:44:17.001Z,100649.66
2023-03-22T01:46:50.856Z,100656.69
2023-03-22T01:49:24.659Z,100657.84
2023-03-22T01:51:55.975Z,100658.06
2023-03-22T01:54:36.169Z,100651.66
2023-03-22T01:57:04.888Z,100651.47
2023-03-22T01:59:33.818Z,100646.28
2023-03-22T02:02:02.992Z,100653.31
2023-03-22T02:04:38.330Z,100652.28
2023-03-22T02:07:16.048Z,100653.47
2023-03-22T02:09:50.022Z,100649.78
2023-03-22T02:12:44.465Z,100649.94
2023-03-22T02:15:24.257Z,100642.03
2023-03-22T02:18:20.503Z,100637.84
2023-03-22T02:22:02.626Z,100644.91
2023-03-22T02:25:05.073Z,100646.72
2023-03-22T02:28:33.383Z,100642.03
2023-03-22T02:31:41.184Z,100646.53
2023-03-22T02:34:55.768Z,100639.31
2023-03-22T02:38:02.325Z,100633.09
2023-03-22T02:40:44.210Z,100628.56
2023-03-22T02:43:34.676Z,100624.69
2023-03-22T02:46:10.991Z,100627.38
2023-03-22T02:48:52.692Z,100628.41
2023-03-22T02:51:30.769Z,100626.38
2023-03-22T02:54:07.907Z,100617.81
2023-03-22T02:56:43.853Z,100619.44
2023-03-22T02:59:14.619Z,100617.91
2023-03-22T03:01:49.591Z,100620.06
2023-03-22T03:04:23.464Z,100609.97
2023-03-22T03:07:01.875Z,100614.97
2023-03-22T03:09:33.341Z,100613.63
2023-03-22T03:12:19.095Z,100616.03
2023-03-22T03:14:48.035Z,100618.19
2023-03-22T03:17:48.943Z,100614.44
2023-03-22T03:20:34.147Z,100619.06
2023-03-22T03:23:20.530Z,100618.91
2023-03-22T03:26:01.817Z,100630.88
2023-03-22T03:28:43.884Z,100630.22
2023-03-22T03:31:33.183Z,100630.81
2023-03-22T03:34:14.733Z,100629.81
2023-03-22T03:36:51.443Z,100627.00
2023-03-22T03:39:23.009Z,100632.22
2023-03-22T03:41:54.050Z,100630.19
2023-03-22T03:44:24.428Z,100631.31
2023-03-22T03:46:55.377Z,100616.41
2023-03-22T03:49:27.135Z,100614.91
2023-03-22T03:51:56.809Z,100622.47
2023-03-22T03:54:25.070Z,100622.16
2023-03-22T03:56:53.705Z,100625.78
2023-03-22T03:59:23.099Z,100622.28
2023-03-22T04:01:51.797Z,100623.28
2023-03-22T04:04:26.339Z,100629.31
2023-03-22T04:06:56.696Z,100619.97
2023-03-22T04:09:25.315Z,100612.06
2023-03-22T04:11:53.180Z,100621.31
2023-03-22T04:14:21.271Z,100620.94
2023-03-22T04:16:50.928Z,100618.63
2023-03-22T04:19:19.369Z,100613.59
2023-03-22T04:21:47.324Z,100618.63
2023-03-22T04:24:16.114Z,100622.16
2023-03-22T04:26:44.072Z,100615.13
2023-03-22T04:29:11.999Z,100618.63
2023-03-22T04:31:39.960Z,100620.78
2023-03-22T04:34:09.236Z,100610.84
2023-03-22T04:36:39.493Z,100609.31
2023-03-22T04:39:10.459Z,100609.22
2023-03-22T04:41:39.073Z,100612.59
2023-03-22T04:44:09.077Z,100606.16
2023-03-22T04:46:38.655Z,100601.84
2023-03-22T04:49:08.195Z,100607.16
2023-03-22T04:51:39.280Z,100602.97
2023-03-22T04:54:14.056Z,100599.25
2023-03-22T04:56:44.691Z,100597.91
2023-03-22T04:59:14.716Z,100597.09
2023-03-22T05:01:45.338Z,100590.88
2023-03-22T05:04:19.136Z,100592.22
2023-03-22T05:06:51.792Z,100592.22
2023-03-22T05:09:22.801Z,100594.09
2023-03-22T05:11:51.438Z,100593.72
2023-03-22T05:14:19.432Z,100591.09
2023-03-22T05:16:47.347Z,100595.47
2023-03-22T05:19:15.280Z,100581.50
2023-03-22T05:21:44.046Z,100583.84
2023-03-22T05:24:13.667Z,100580.81
2023-03-22T05:26:42.391Z,100585.41
2023-03-22T05:29:11.155Z,100583.50
2023-03-22T05:31:40.358Z,100575.78
2023-03-22T05:34:09.666Z,100582.81
2023-03-22T05:36:38.048Z,100580.97
2023-03-22T05:39:07.282Z,100587.22
2023-03-22T05:41:37.105Z,100585.50
2023-03-22T05:44:06.008Z,100589.19
2023-03-22T05:46:34.054Z,100585.50
2023-03-22T05:49:02.053Z,100585.66
2023-03-22T05:51:30.620Z,100587.53
2023-03-22T05:53:58.525Z,100581.84
2023-03-22T05:56:27.030Z,100582.97
2023-03-22T05:58:58.197Z,100579.66
2023-03-22T06:01:26.635Z,100570.63
2023-03-22T06:03:54.748Z,100573.31
2023-03-22T06:06:28.729Z,100570.84
2023-03-22T06:09:07.297Z,100569.31
2023-03-22T06:11:42.693Z,100571.16
2023-03-22T06:14:14.258Z,100571.19
2023-03-22T06:16:42.991Z,100575.19
2023-03-22T06:19:13.119Z,100574.69
2023-03-22T06:21:42.341Z,100572.38
2023-03-22T06:24:11.189Z,100584.50
2023-03-22T06:26:39.204Z,100576.25
2023-03-22T06:29:07.099Z,100582.16
2023-03-22T06:31:36.463Z,100580.16
2023-03-22T06:34:05.089Z,100573.41
2023-03-22T06:36:33.457Z,100579.63
2023-03-22T06:39:02.769Z,100578.16
2023-03-22T06:41:30.732Z,100587.03
2023-03-22T06:43:58.677Z,100592.41
2023-03-22T06:46:26.777Z,100587.03
2023-03-22T06:48:56.273Z,100589.78
2023-03-22T06:51:24.250Z,100596.97
2023-03-22T06:53:54.024Z,100591.59
2023-03-22T06:56:23.778Z,100594.31
2023-03-22T06:58:55.292Z,100589.25
2023-03-22T07:01:23.363Z,100586.94
2023-03-22T07:03:52.212Z,100587.09
2023-03-22T07:06:23.743Z,100582.06
2023-03-22T07:08:52.195Z,100586.25
2023-03-22T07:11:21.359Z,100585.78
2023-03-22T07:13:49.349Z,100594.34
2023-03-22T07:16:20.048Z,100596.72
2023-03-22T07:18:48.285Z,100591.84
2023-03-22T07:21:17.396Z,100586.31
2023-03-22T07:23:47.260Z,100584.34
2023-03-22T07:26:15.421Z,100582.63
2023-03-22T07:28:44.553Z,100581.47
2023-03-22T07:31:18.070Z,100578.28
2023-03-22T07:33:46.195Z,100572.88
2023-03-22T07:36:14.048Z,100570.88
2023-03-22T07:38:42.751Z,100580.44
2023-03-22T07:41:12.098Z,100570.03
2023-03-22T07:43:52.760Z,100560.13
2023-03-22T07:46:23.758Z,100563.97
2023-03-22T07:48:51.823Z,100555.59
2023-03-22T07:51:22.538Z,100556.09
2023-03-22T07:53:50.604Z,100551.38
2023-03-22T07:56:19.969Z,100553.72
2023-03-22T07:58:47.939Z,100556.34
2023-03-22T08:01:19.004Z,100547.22
2023-03-22T08:03:52.478Z,100558.16
2023-03-22T08:06:23.599Z,100558.44
2023-03-22T08:08:54.817Z,100546.34
2023-03-22T08:11:28.326Z,100545.47
2023-03-22T08:13:59.291Z,100545.00
2023-03-22T08:16:30.204Z,100550.91
2023-03-22T08:19:00.443Z,100555.53
2023-03-22T08:21:33.163Z,100543.97
2023-03-22T08:24:03.808Z,100554.00
2023-03-22T08:26:36.729Z,100545.66
2023-03-22T08:29:07.578Z,100554.25
2023-03-22T08:31:37.999Z,100551.06
2023-03-22T08:34:10.396Z,100541.25
2023-03-22T08:36:41.968Z,100539.94
2023-03-22T08:39:12.891Z,100539.63
2023-03-22T08:41:47.424Z,100541.59
2023-03-22T08:44:20.298Z,100537.94
2023-03-22T08:46:50.441Z,100534.47
2023-03-22T08:49:21.411Z,100533.53
2023-03-22T08:51:51.883Z,100519.44
2023-03-22T08:54:25.664Z,100524.13
2023-03-22T08:56:55.332Z,100511.34
2023-03-22T08:59:25.090Z,100516.50
2023-03-22T09:01:53.127Z,100520.66
2023-03-22T09:04:21.243Z,100518.44
2023-03-22T09:06:49.325Z,100515.09
2023-03-22T09:09:23.048Z,100508.84
2023-03-22T09:11:51.077Z,100511.84
2023-03-22T09:14:20.476Z,100505.72
2023-03-22T09:16:49.003Z,100497.50
2023-03-22T09:19:17.788Z,100499.19
2023-03-22T09:21:48.134Z,100496.84
2023-03-22T09:24:21.404Z,100498.78
2023-03-22T09:26:50.389Z,100503.47
2023-03-22T09:29:22.527Z,100505.41
2023-03-22T09:31:54.365Z,100500.56
2023-03-22T09:34:22.436Z,100493.56
2023-03-22T09:36:53.016Z,100496.19
2023-03-22T09:39:24.186Z,100489.91
2023-03-22T09:41:59.547Z,100493.56
2023-03-22T09:44:41.428Z,100499.88
2023-03-22T09:47:22.302Z,100499.88
2023-03-22T09:50:04.006Z,100483.69
2023-03-22T09:52:35.072Z,100482.00
2023-03-22T09:55:08.986Z,100487.81
2023-03-22T09:57:40.355Z,100482.31
2023-03-22T10:00:26.927Z,100475.78
2023-03-22T10:03:17.143Z,100472.94
2023-03-22T10:05:56.040Z,100469.16
2023-03-22T10:08:50.130Z,100474.91
2023-03-22T10:11:38.528Z,100461.19
2023-03-22T10:14:33.412Z,100468.25
2023-03-22T10:17:11.884Z,100469.75
2023-03-22T10:19:53.253Z,100460.19
2023-03-22T10:22:29.689Z,100452.91
2023-03-22T10:25:01.048Z,100449.28
2023-03-22T10:27:32.674Z,100438.31
2023-03-22T10:30:07.939Z,100431.50
2023-03-22T10:32:56.645Z,100429.84
2023-03-22T10:35:25.971Z,100414.41
2023-03-22T10:37:57.062Z,100420.50
2023-03-22T10:40:31.241Z,100409.44
2023-03-22T10:43:05.480Z,100412.72
2023-03-22T10:45:38.185Z,100413.34
2023-03-22T10:48:18.010Z,100398.59
2023-03-22T10:50:48.166Z,100405.88
2023-03-22T10:53:31.822Z,100405.06
2023-03-22T10:56:00.204Z,100397.09
2023-03-22T10:58:32.162Z,100395.88
2023-03-22T11:01:05.647Z,100398.19
2023-03-22T11:03:42.665Z,100398.56
2023-03-22T11:06:13.799Z,100405.66
2023-03-22T11:08:46.835Z,100396.28
2023-03-22T11:11:23.458Z,100396.50
2023-03-22T11:13:56.469Z,100392.94
2023-03-22T11:16:25.093Z,100392.09
2023-03-22T11:18:57.927Z,100385.00
2023-03-22T11:21:33.293Z,100387.31
2023-03-22T11:24:07.348Z,100393.38
2023-03-22T11:26:40.804Z,100396.22
2023-03-22T11:29:17.586Z,100386.63
2023-03-22T11:31:57.375Z,100390.38
2023-03-22T11:34:28.892Z,100391.44
2023-03-22T11:37:01.149Z,100391.00
2023-03-22T11:39:30.890Z,100386.44
2023-03-22T11:42:01.437Z,100383.75
2023-03-22T11:44:37.891Z,100371.19
2023-03-22T11:47:09.747Z,100371.19
2023-03-22T11:49:46.297Z,100368.66
2023-03-22T11:52:19.952Z,100369.72
2023-03-22T11:54:49.351Z,100356.31
2023-03-22T11:57:21.535Z,100360.06
2023-03-22T11:59:58.179Z,100356.94
2023-03-22T12:02:31.252Z,100344.03
2023-03-22T12:05:13.070Z,100343.41
2023-03-22T12:07:43.089Z,100345.91
2023-03-22T12:10:18.195Z,100344.88
2023-03-22T12:12:56.890Z,100340.22
2023-03-22T12:15:30.686Z,100326.53
2023-03-22T12:18:08.022Z,100323.66
2023-03-22T12:20:48.572Z,100315.41
2023-03-22T12:23:20.144Z,100313.22
2023-03-22T12:25:54.420Z,100314.78
2023-03-22T12:28:31.873Z,100308.91
2023-03-22T12:31:03.681Z,100306.34
2023-03-22T12:33:36.869Z,100295.75
2023-03-22T12:36:08.979Z,100304.25
2023-03-22T12:38:44.044Z,100298.00
2023-03-22T12:41:16.744Z,100299.63
2023-03-22T12:43:54.454Z,100294.19
2023-03-22T12:46:27.748Z,100290.03
2023-03-22T12:49:03.502Z,100292.56
2023-03-22T12:51:33.321Z,100293.19
2023-03-22T12:54:02.884Z,100297.72
2023-03-22T12:56:39.611Z,100285.34
2023-03-22T12:59:17.248Z,100276.34
2023-03-22T13:01:53.089Z,100272.53
2023-03-22T13:04:46.872Z,100287.59
2023-03-22T13:07:34.257Z,100284.84
2023-03-22T13:10:41.639Z,100285.50
2023-03-22T13:13:15.476Z,100275.41
2023-03-22T13:16:02.217Z,100277.59
2023-03-22T13:18:42.487Z,100279.59
2023-03-22T13:21:17.873Z,100275.03
2023-03-22T13:24:03.941Z,100280.50
2023-03-22T13:26:45.562Z,100277.00
2023-03-22T13:29:20.046Z,100278.69
2023-03-22T13:31:58.537Z,100284.75
2023-03-22T13:34:39.267Z,100280.94
2023-03-22T13:37:25.298Z,100277.78
2023-03-22T13:39:56.932Z,100280.53
2023-03-22T13:42:40.955Z,100276.44
2023-03-22T13:45:31.544Z,100276.44
2023-03-22T13:48:16.257Z,100277.69
2023-03-22T13:50:46.486Z,100269.56
2023-03-22T13:53:23.201Z,100258.53
2023-03-22T13:56:05.045Z,100263.94
2023-03-22T13:58:49.752Z,100249.13
2023-03-22T14:01:27.903Z,100253.50
2023-03-22T14:04:02.016Z,100249.25
2023-03-22T14:06:34.795Z,100242.81
2023-03-22T14:09:12.017Z,100242.19
2023-03-22T14:11:49.895Z,100233.81
2023-03-22T14:14:25.727Z,100236.13
2023-03-22T14:17:04.969Z,100223.28
2023-03-22T14:19:37.668Z,100246.16
